Time;durP1;ratioP1;P1;durP2;ratioP2;P2;SDS_P1;SDS_P2;PMS_P1;PMS_P2;Temp;Humidity;BMP_temperature;BMP_pressure;BME280_temperature;BME280_humidity;BME280_pressure;Samples;Min_cycle;Max_cycle;Signal;HPM_P1;HPM_P2
2023/11/01 00:02:30;;;;;;;53.02;23.18;;;;;;;14.63;67.87;99977.63;1735354;82;21879;-79
2023/11/01 00:05:36;;;;;;;54.55;23.18;;;;;;;14.38;68.46;99970.48;1735403;82;21346;-79
2023/11/01 00:08:41;;;;;;;55.60;24.05;;;;;;;14.50;68.44;99963.34;1733715;82;21326;-79
2023/11/01 00:11:47;;;;;;;49.53;23.50;;;;;;;14.50;68.09;99956.47;1735070;82;21318;-79
2023/11/01 00:14:53;;;;;;;50.25;24.57;;;;;;;14.38;68.37;99953.98;1733947;82;21338;-78
2023/11/01 00:17:59;;;;;;;58.35;22.67;;;;;;;14.14;69.17;99955.95;1734123;82;21262;-78
2023/11/01 00:21:05;;;;;;;45.73;22.82;;;;;;;14.48;68.04;99952.22;1735026;82;21927;-78
2023/11/01 00:24:12;;;;;;;47.58;23.30;;;;;;;14.48;67.95;99951.69;1734846;82;21342;-79
2023/11/01 00:27:18;;;;;;;60.08;23.32;;;;;;;14.59;67.53;99946.64;1734571;82;21790;-78
2023/11/01 00:30:23;;;;;;;50.30;21.52;;;;;;;14.58;67.24;99943.01;1733762;82;21929;-79
2023/11/01 00:33:29;;;;;;;55.05;19.85;;;;;;;14.62;66.93;99937.41;1734928;82;21365;-79
2023/11/01 00:36:36;;;;;;;39.35;19.75;;;;;;;14.38;67.65;99936.09;1735169;82;21774;-79
2023/11/01 00:39:42;;;;;;;40.10;19.05;;;;;;;14.39;67.54;99936.41;1733831;82;21251;-78
2023/11/01 00:42:48;;;;;;;34.18;18.12;;;;;;;14.41;67.43;99932.93;1733816;82;21373;-79
2023/11/01 00:45:53;;;;;;;35.58;16.20;;;;;;;14.45;67.21;99935.58;1734033;82;21353;-77
2023/11/01 00:48:59;;;;;;;28.92;13.32;;;;;;;14.41;67.18;99937.06;1734058;82;21362;-78
2023/11/01 00:52:05;;;;;;;31.65;13.28;;;;;;;14.54;66.92;99933.51;1734143;82;21323;-77
2023/11/01 00:55:12;;;;;;;29.15;13.58;;;;;;;14.47;66.96;99918.32;1735458;82;21327;-78
2023/11/01 00:58:21;;;;;;;26.80;12.20;;;;;;;14.51;67.00;99913.28;1734750;82;21319;-79
2023/11/01 01:01:27;;;;;;;20.20;10.40;;;;;;;14.71;66.53;99913.27;1738261;80;21376;-78
2023/11/01 01:04:34;;;;;;;23.87;11.63;;;;;;;14.89;65.99;99906.58;1748409;82;21326;-78
2023/11/01 01:07:40;;;;;;;23.45;11.18;;;;;;;14.89;66.00;99902.98;1746825;82;21378;-79
2023/11/01 01:10:45;;;;;;;23.87;10.80;;;;;;;15.03;65.55;99892.25;1746768;82;21762;-77
2023/11/01 01:13:52;;;;;;;21.65;10.93;;;;;;;14.84;65.81;99898.12;1747066;82;21850;-78
2023/11/01 01:16:51;;;;;;;18.73;10.38;;;;;;;15.11;64.89;99897.55;1746878;82;21306;-79
2023/11/01 01:19:43;;;;;;;20.00;10.45;;;;;;;14.99;65.24;99890.98;1748189;82;21318;-79
2023/11/01 01:22:30;;;;;;;24.47;10.98;;;;;;;15.27;64.81;99894.30;1748291;82;21299;-79
2023/11/01 01:25:22;;;;;;;21.90;10.10;;;;;;;14.95;65.46;99887.81;1748322;82;21303;-78
2023/11/01 01:28:08;;;;;;;18.15;9.28;;;;;;;15.23;65.07;99891.66;1747689;82;21370;-78
2023/11/01 01:31:01;;;;;;;20.40;10.08;;;;;;;15.35;64.96;99893.22;1747411;82;21370;-79
2023/11/01 01:34:07;;;;;;;25.15;10.63;;;;;;;15.44;64.52;99891.92;1748576;82;21311;-78
2023/11/01 01:37:13;;;;;;;20.30;10.00;;;;;;;15.38;64.89;99890.02;1748629;82;21303;-78
2023/11/01 01:40:20;;;;;;;19.07;9.58;;;;;;;15.21;65.46;99887.45;1748675;82;21302;-78
2023/11/01 01:43:26;;;;;;;24.82;11.15;;;;;;;15.46;64.77;99888.94;1748727;82;21857;-78
2023/11/01 01:46:36;;;;;;;25.20;11.25;;;;;;;15.64;64.05;99892.39;1747504;82;21381;-78
2023/11/01 01:49:42;;;;;;;26.68;10.20;;;;;;;15.56;64.36;99895.66;1747659;82;21335;-78
2023/11/01 01:52:48;;;;;;;22.25;9.85;;;;;;;15.21;65.30;99893.80;1746097;82;21309;-80
2023/11/01 01:55:54;;;;;;;24.60;10.78;;;;;;;14.99;65.97;99881.35;1733886;82;21340;-80
2023/11/01 01:59:00;;;;;;;13.70;9.90;;;;;;;15.19;65.63;99875.24;1734099;82;21327;-79
2023/11/01 02:02:08;;;;;;;20.97;10.05;;;;;;;15.47;65.16;99872.70;1734142;82;21681;-79
2023/11/01 02:05:15;;;;;;;21.93;10.80;;;;;;;15.48;64.83;99875.27;1765316;81;21247;-79
2023/11/01 02:08:21;;;;;;;21.73;10.23;;;;;;;15.40;65.04;99872.75;1765286;80;21719;-78
2023/11/01 02:11:27;;;;;;;17.90;10.00;;;;;;;15.51;64.84;99874.80;1763462;81;21337;-78
2023/11/01 02:14:34;;;;;;;26.95;11.90;;;;;;;15.44;64.82;99861.61;1763558;81;21326;-78
2023/11/01 02:17:40;;;;;;;25.68;11.15;;;;;;;15.72;64.15;99857.69;1762072;81;21314;-79
2023/11/01 02:20:51;;;;;;;24.00;11.55;;;;;;;15.87;63.55;99856.00;1763423;81;21924;-79
2023/11/01 02:23:58;;;;;;;20.43;11.03;;;;;;;15.93;63.42;99849.59;1763453;81;21770;-79
2023/11/01 02:27:04;;;;;;;23.25;11.90;;;;;;;16.02;63.05;99853.23;1764243;81;21861;-79
2023/11/01 02:30:16;;;;;;;25.40;12.28;;;;;;;16.18;62.25;99835.81;1763194;81;21670;-78
2023/11/01 02:33:20;;;;;;;19.67;10.75;;;;;;;16.15;62.14;99840.42;1764382;81;21325;-79
2023/11/01 02:36:27;;;;;;;20.52;12.28;;;;;;;16.20;61.72;99836.45;1764529;81;21306;-79
2023/11/01 02:39:33;;;;;;;23.02;12.03;;;;;;;15.82;63.06;99830.47;1763891;81;21338;-79
2023/11/01 02:42:40;;;;;;;30.60;13.80;;;;;;;15.82;63.69;99824.95;1764289;81;21326;-79
2023/11/01 02:45:46;;;;;;;28.07;13.32;;;;;;;16.18;62.83;99813.74;1762972;81;21869;-79
2023/11/01 02:48:51;;;;;;;25.10;12.25;;;;;;;16.15;62.79;99813.67;1764292;81;21349;-79
2023/11/01 02:51:57;;;;;;;30.90;12.73;;;;;;;16.18;63.24;99810.45;1764088;81;21306;-79
2023/11/01 02:55:09;;;;;;;26.42;12.80;;;;;;;16.64;61.72;99807.80;1764424;81;21326;-79
2023/11/01 02:58:11;;;;;;;27.55;13.80;;;;;;;16.41;62.05;99802.92;1764463;81;21306;-79
2023/11/01 03:01:17;;;;;;;27.35;13.40;;;;;;;16.28;62.51;99804.45;1764305;81;21620;-79
2023/11/01 03:04:24;;;;;;;23.70;13.20;;;;;;;16.36;62.30;99800.00;1757866;80;21338;-79
2023/11/01 03:07:30;;;;;;;26.65;13.28;;;;;;;16.07;62.87;99802.37;1748296;82;21315;-79
2023/11/01 03:10:36;;;;;;;30.77;13.65;;;;;;;16.21;62.60;99799.50;1747166;82;21378;-79
2023/11/01 03:13:43;;;;;;;32.00;13.60;;;;;;;16.38;62.02;99794.27;1746721;82;21318;-79
2023/11/01 03:16:49;;;;;;;25.50;13.95;;;;;;;16.77;60.69;99792.51;1747907;82;21330;-80
2023/11/01 03:19:55;;;;;;;23.70;13.20;;;;;;;16.35;62.05;99790.03;1747555;82;21303;-79
2023/11/01 03:23:01;;;;;;;24.55;13.75;;;;;;;15.92;63.43;99785.31;1748141;82;21308;-78
2023/11/01 03:26:07;;;;;;;26.87;13.75;;;;;;;15.76;64.24;99783.08;1748043;82;21885;-79
2023/11/01 03:29:13;;;;;;;21.02;12.33;;;;;;;15.82;63.96;99777.53;1748111;82;22552;-78
2023/11/01 03:32:22;;;;;;;24.77;13.95;;;;;;;15.58;64.89;99775.56;1747791;82;21366;-79
2023/11/01 03:35:28;;;;;;;27.20;14.30;;;;;;;16.40;62.44;99765.36;1746646;82;21303;-78
2023/11/01 03:38:35;;;;;;;24.90;14.68;;;;;;;16.32;62.10;99769.78;1747234;82;21330;-79
2023/11/01 03:41:40;;;;;;;29.75;14.10;;;;;;;16.34;62.03;99764.89;1746567;82;21359;-79
2023/11/01 03:44:49;;;;;;;29.12;13.48;;;;;;;16.41;61.83;99765.66;1747980;82;21322;-79
2023/11/01 03:47:56;;;;;;;34.75;15.10;;;;;;;16.45;61.49;99775.17;1747429;82;21923;-78
2023/11/01 03:51:02;;;;;;;27.87;14.18;;;;;;;15.90;62.42;99772.80;1747301;82;21957;-80
2023/11/01 03:54:08;;;;;;;23.35;14.13;;;;;;;15.56;64.18;99774.92;1748050;82;21314;-79
2023/11/01 03:57:14;;;;;;;22.05;12.60;;;;;;;15.48;64.85;99765.52;1748116;82;21829;-80
2023/11/01 04:00:41;;;;;;;19.82;11.30;;;;;;;15.42;64.97;99773.31;1747719;82;21988;-80
2023/11/01 04:03:47;;;;;;;22.60;13.18;;;;;;;15.40;64.97;99766.65;1593689;90;21351;-79
2023/11/01 04:06:55;;;;;;;31.70;12.88;;;;;;;15.11;65.58;99768.62;1592486;90;21360;-79
2023/11/01 04:10:01;;;;;;;25.57;13.75;;;;;;;15.30;64.89;99763.00;1593669;90;21385;-79
2023/11/01 04:13:07;;;;;;;30.20;12.90;;;;;;;14.97;65.36;99759.03;1593547;90;21339;-80
2023/11/01 04:16:13;;;;;;;23.92;13.62;;;;;;;15.04;65.28;99758.98;1593248;90;21375;-79
2023/11/01 04:19:19;;;;;;;33.40;14.78;;;;;;;15.21;64.79;99762.09;1593789;90;21380;-79
2023/11/01 04:22:25;;;;;;;24.45;14.03;;;;;;;15.06;65.21;99763.23;1593860;90;21351;-79
2023/11/01 04:25:30;;;;;;;26.55;13.68;;;;;;;14.87;65.49;99753.14;1593790;90;21368;-79
2023/11/01 04:28:37;;;;;;;32.15;13.85;;;;;;;14.88;65.65;99752.08;1593926;90;21356;-78
2023/11/01 04:31:43;;;;;;;26.80;14.95;;;;;;;14.82;65.64;99745.53;1592974;90;21401;-79
2023/11/01 04:34:54;;;;;;;25.80;13.80;;;;;;;14.91;65.61;99749.40;1593800;90;21367;-79
2023/11/01 04:37:55;;;;;;;27.02;14.63;;;;;;;14.87;65.98;99749.02;1592956;90;21994;-79
2023/11/01 04:41:03;;;;;;;28.30;13.70;;;;;;;14.97;65.98;99754.90;1592138;90;21356;-79
2023/11/01 04:44:09;;;;;;;28.52;16.62;;;;;;;15.03;65.73;99758.14;1592474;90;21352;-78
2023/11/01 04:47:14;;;;;;;32.53;16.27;;;;;;;15.08;65.74;99766.59;1591692;90;21950;-78
2023/11/01 04:50:23;;;;;;;26.33;13.72;;;;;;;15.21;65.39;99767.61;1592401;90;21249;-80
2023/11/01 04:53:29;;;;;;;28.50;14.03;;;;;;;15.02;66.22;99769.39;1592446;90;21332;-79
2023/11/01 04:56:36;;;;;;;24.32;13.98;;;;;;;15.01;66.21;99757.53;1592361;90;21352;-79
2023/11/01 04:59:41;;;;;;;34.40;14.73;;;;;;;15.20;65.93;99764.02;1592341;90;21352;-80
2023/11/01 05:02:47;;;;;;;22.40;13.75;;;;;;;15.19;65.89;99755.41;1595185;89;21939;-78
2023/11/01 05:05:54;;;;;;;24.32;14.20;;;;;;;15.09;66.27;99756.42;1606213;89;21337;-78
2023/11/01 05:09:01;;;;;;;29.40;14.40;;;;;;;15.03;66.66;99762.27;1606253;89;21340;-79
2023/11/01 05:12:06;;;;;;;36.65;16.02;;;;;;;15.09;66.94;99768.28;1605471;89;21391;-79
2023/11/01 05:15:13;;;;;;;30.55;16.02;;;;;;;15.19;66.78;99751.81;1606203;89;21341;-78
2023/11/01 05:18:18;;;;;;;28.10;15.05;;;;;;;15.43;66.54;99744.67;1605023;89;21406;-79
2023/11/01 05:21:25;;;;;;;30.20;15.68;;;;;;;15.58;66.29;99746.08;1605428;89;21364;-79
2023/11/01 05:24:29;;;;;;;28.85;14.25;;;;;;;15.58;66.55;99747.45;1605516;89;21368;-79
2023/11/01 05:27:36;;;;;;;31.95;16.25;;;;;;;15.60;67.02;99752.20;1603988;89;21369;-79
2023/11/01 05:30:43;;;;;;;20.72;12.73;;;;;;;15.77;66.60;99753.92;1603741;89;21356;-79
2023/11/01 05:33:49;;;;;;;25.52;14.45;;;;;;;15.73;67.24;99750.46;1604767;88;21969;-79
2023/11/01 05:36:54;;;;;;;25.55;14.10;;;;;;;16.02;66.31;99746.19;1604881;89;21237;-78
2023/11/01 05:40:00;;;;;;;30.27;15.20;;;;;;;16.17;66.00;99743.08;1605742;89;22154;-80
2023/11/01 05:43:05;;;;;;;26.87;13.95;;;;;;;16.28;65.76;99744.58;1604020;89;21352;-78
2023/11/01 05:46:12;;;;;;;28.27;14.25;;;;;;;16.24;66.18;99746.10;1605398;89;21342;-79
2023/11/01 05:49:20;;;;;;;35.38;15.25;;;;;;;16.47;65.81;99752.34;1605206;89;21252;-78
2023/11/01 05:52:25;;;;;;;33.33;15.15;;;;;;;16.56;65.75;99744.08;1603433;89;21307;-79
2023/11/01 05:55:31;;;;;;;30.00;14.65;;;;;;;16.37;66.36;99742.34;1604324;89;21995;-79
2023/11/01 05:58:40;;;;;;;29.12;15.08;;;;;;;16.41;66.62;99741.36;1602766;89;21362;-79
2023/11/01 06:01:47;;;;;;;33.85;15.50;;;;;;;16.53;66.37;99740.92;1603298;89;21271;-78
2023/11/01 06:04:53;;;;;;;30.90;16.23;;;;;;;16.68;66.08;99733.64;1592405;89;21384;-79
2023/11/01 06:07:59;;;;;;;29.12;16.65;;;;;;;16.66;66.08;99733.04;1585587;89;21966;-80
2023/11/01 06:11:04;;;;;;;31.45;16.07;;;;;;;16.93;65.53;99739.94;1586324;90;21984;-78
2023/11/01 06:14:10;;;;;;;23.98;13.55;;;;;;;16.93;65.78;99742.70;1587946;90;21918;-79
2023/11/01 06:17:15;;;;;;;34.20;16.40;;;;;;;17.15;65.13;99746.38;1587258;90;21326;-78
2023/11/01 06:20:22;;;;;;;32.70;15.65;;;;;;;16.94;65.88;99752.70;1584487;90;21772;-80
2023/11/01 06:23:28;;;;;;;32.05;16.30;;;;;;;17.06;65.72;99751.36;1584467;90;21340;-79
2023/11/01 06:26:35;;;;;;;35.55;15.60;;;;;;;17.20;65.45;99765.86;1578290;89;21405;-80
2023/11/01 06:29:44;;;;;;;43.78;16.15;;;;;;;17.50;64.94;99757.56;1569099;91;21261;-80
2023/11/01 06:32:50;;;;;;;26.90;15.40;;;;;;;17.90;64.25;99745.94;1576116;90;21243;-78
2023/11/01 06:35:58;;;;;;;31.40;15.10;;;;;;;17.90;64.25;99745.94;1583578;90;21364;-80
2023/11/01 06:39:04;;;;;;;29.32;14.70;;;;;;;17.99;64.01;99745.34;1583918;89;21938;-80
2023/11/01 06:42:10;;;;;;;32.53;16.80;;;;;;;17.91;64.57;99742.92;1584404;89;21373;-80
2023/11/01 06:45:26;;;;;;;30.62;15.58;;;;;;;17.98;64.62;99747.81;1582425;89;21374;-78
2023/11/01 06:48:33;;;;;;;36.17;17.42;;;;;;;18.01;64.85;99745.94;1587516;89;21399;-80
2023/11/01 06:51:43;;;;;;;32.33;16.07;;;;;;;18.25;64.30;99752.88;1583822;89;22654;-80
2023/11/01 06:54:52;;;;;;;33.48;15.50;;;;;;;18.04;64.74;99745.47;1587265;89;21376;-81
2023/11/01 06:58:00;;;;;;;40.58;16.27;;;;;;;18.07;65.38;99738.62;1583451;88;55533;-80
2023/11/01 07:01:06;;;;;;;27.05;15.23;;;;;;;18.42;64.44;99746.09;1593652;89;21379;-81
2023/11/01 07:05:30;;;;;;;32.15;15.53;;;;;;;18.47;63.92;99739.28;1434227;98;22016;-80
2023/11/01 07:09:05;;;;;;;37.13;15.75;;;;;;;18.44;64.21;99729.52;1446424;96;21456;-80
2023/11/01 07:12:11;;;;;;;32.42;15.93;;;;;;;18.99;62.72;99714.41;1463009;96;21291;-81
2023/11/01 07:15:23;;;;;;;36.83;14.83;;;;;;;19.15;62.10;99711.71;1461488;96;21304;-82
2023/11/01 07:18:37;;;;;;;26.65;13.78;;;;;;;19.01;62.46;99699.78;1469876;96;21850;-83
2023/11/01 07:21:46;;;;;;;29.40;15.03;;;;;;;19.01;62.99;99704.77;1467298;96;21240;-83
2023/11/01 07:24:51;;;;;;;30.90;14.63;;;;;;;19.07;62.85;99701.01;1466279;96;21315;-83
2023/11/01 07:27:57;;;;;;;28.60;13.48;;;;;;;19.27;62.25;99695.01;1466660;96;21264;-83
2023/11/01 07:31:01;;;;;;;29.82;13.80;;;;;;;19.32;62.10;99692.33;1467968;96;21307;-83
2023/11/01 07:34:08;;;;;;;32.55;13.40;;;;;;;19.43;61.73;99682.27;1465234;96;21302;-84
2023/11/01 07:37:16;;;;;;;27.98;12.68;;;;;;;19.50;61.65;99674.64;1466367;96;21309;-82
2023/11/01 07:40:28;;;;;;;31.05;13.65;;;;;;;19.72;61.17;99673.40;1472436;96;21295;-82
2023/11/01 07:43:33;;;;;;;28.07;13.48;;;;;;;19.70;61.14;99668.63;1572289;90;21956;-83
2023/11/01 07:46:38;;;;;;;26.42;14.40;;;;;;;19.71;61.04;99676.41;1576117;90;21232;-83
2023/11/01 07:49:49;;;;;;;25.95;12.85;;;;;;;19.88;60.94;99677.25;1575335;90;21270;-83
2023/11/01 07:52:55;;;;;;;31.73;12.73;;;;;;;19.90;61.03;99689.80;1572311;89;21234;-82
2023/11/01 07:56:00;;;;;;;28.50;13.50;;;;;;;20.41;59.72;99682.78;1570137;90;21369;-82
2023/11/01 07:59:08;;;;;;;26.27;12.18;;;;;;;20.48;59.31;99690.98;1552381;91;21626;-82
2023/11/01 08:02:14;;;;;;;24.50;12.45;;;;;;;20.51;59.24;99692.67;1572200;90;21341;-83
2023/11/01 08:05:19;;;;;;;34.08;12.75;;;;;;;20.43;59.29;99692.55;1574992;90;21258;-83
2023/11/01 08:08:24;;;;;;;24.87;12.60;;;;;;;20.62;58.86;99690.89;1601429;88;21860;-83
2023/11/01 08:11:30;;;;;;;27.77;11.48;;;;;;;20.63;58.84;99693.41;1586265;89;21224;-83
2023/11/01 08:14:36;;;;;;;22.58;11.80;;;;;;;20.73;58.67;99683.52;1589605;89;21244;-83
2023/11/01 08:17:42;;;;;;;27.22;12.43;;;;;;;20.71;59.16;99671.84;1588992;89;21870;-83
2023/11/01 08:20:52;;;;;;;28.75;11.20;;;;;;;20.76;59.46;99681.08;1598005;89;21237;-82
2023/11/01 08:24:17;;;;;;;23.73;11.12;;;;;;;20.78;59.14;99687.20;1598397;88;21301;-83
2023/11/01 08:27:44;;;;;;;24.00;11.35;;;;;;;20.87;58.87;99672.30;1597745;88;22538;-83
2023/11/01 08:30:50;;;;;;;24.35;11.35;;;;;;;21.15;57.78;99670.69;1675211;84;21947;-83
2023/11/01 08:33:58;;;;;;;20.37;9.75;;;;;;;21.12;57.66;99668.42;1683432;83;21905;-82
2023/11/01 08:37:05;;;;;;;23.55;11.73;;;;;;;21.09;57.91;99664.80;1670676;84;22665;-82
2023/11/01 08:40:10;;;;;;;24.45;10.72;;;;;;;21.26;57.94;99661.06;1679856;84;21352;-82
2023/11/01 08:43:20;;;;;;;18.23;9.27;;;;;;;21.37;57.77;99657.33;1681895;84;22273;-82
2023/11/01 08:46:26;;;;;;;30.30;10.00;;;;;;;21.25;58.22;99659.39;1683455;84;21293;-83
2023/11/01 08:49:32;;;;;;;23.95;10.05;;;;;;;21.28;58.32;99668.61;1691448;84;22020;-83
2023/11/01 08:52:38;;;;;;;22.37;9.83;;;;;;;21.38;58.13;99664.57;1684802;84;21908;-83
2023/11/01 08:55:43;;;;;;;24.82;8.93;;;;;;;21.48;57.78;99668.00;1678779;84;21349;-83
2023/11/01 08:58:52;;;;;;;21.33;9.68;;;;;;;21.73;57.20;99666.83;1679712;84;21265;-83
2023/11/01 09:01:58;;;;;;;19.12;8.98;;;;;;;21.59;58.08;99665.03;1624059;87;21211;-84
2023/11/01 09:05:07;;;;;;;22.35;10.72;;;;;;;21.85;57.78;99655.53;1622629;86;21333;-83
2023/11/01 09:19:50;;;;;;;22.52;10.70;;;;;;;22.29;56.62;99670.07;1636393;85;21511;-83
2023/11/01 09:22:57;;;;;;;25.95;10.45;;;;;;;22.70;56.03;99673.92;1668388;83;21289;-83
2023/11/01 09:26:08;;;;;;;26.55;9.55;;;;;;;22.40;56.88;99668.20;1653714;84;21320;-82
2023/11/01 09:29:13;;;;;;;20.37;8.63;;;;;;;22.50;57.05;99657.11;1663391;84;21281;-83
2023/11/01 09:32:22;;;;;;;20.40;7.42;;;;;;;22.84;56.44;99646.95;1655613;84;21356;-83
2023/11/01 09:35:29;;;;;;;18.00;6.53;;;;;;;22.62;56.88;99642.94;1671709;84;21341;-83
2023/11/01 09:38:36;;;;;;;16.87;6.53;;;;;;;22.90;56.33;99631.38;1677752;84;21283;-83
2023/11/01 09:41:54;;;;;;;27.30;6.45;;;;;;;22.79;57.08;99634.39;1632363;86;21321;-83
2023/11/01 09:45:04;;;;;;;11.12;5.15;;;;;;;22.81;57.51;99621.83;1635709;86;21343;-83
2023/11/01 09:48:11;;;;;;;18.02;7.05;;;;;;;22.96;57.88;99626.67;1641482;86;21308;-83
2023/11/01 09:51:18;;;;;;;15.48;6.50;;;;;;;23.19;57.37;99614.16;1636769;86;22103;-82
2023/11/01 09:54:25;;;;;;;14.95;5.72;;;;;;;23.08;57.73;99618.05;1631326;86;21358;-83
2023/11/01 09:57:38;;;;;;;20.57;6.62;;;;;;;23.56;56.22;99609.73;1618935;86;21847;-82
2023/11/01 10:00:44;;;;;;;23.73;7.42;;;;;;;23.65;55.70;99603.91;1616711;87;21341;-83
2023/11/01 10:03:51;;;;;;;24.35;9.55;;;;;;;23.54;55.95;99611.98;1610355;87;21661;-83
2023/11/01 10:06:56;;;;;;;20.15;7.60;;;;;;;23.38;56.49;99611.14;1609946;87;21230;-84
2023/11/01 10:10:07;;;;;;;19.37;7.35;;;;;;;23.56;55.65;99604.70;1613895;87;21781;-84
2023/11/01 10:13:10;;;;;;;23.70;8.10;;;;;;;23.42;55.96;99600.23;1609475;87;21203;-84
2023/11/01 10:16:17;;;;;;;24.12;7.83;;;;;;;23.18;56.69;99599.38;1612652;86;21199;-84
2023/11/01 10:19:24;;;;;;;20.35;7.62;;;;;;;23.28;56.60;99594.36;1613803;87;21331;-83
2023/11/01 10:22:32;;;;;;;17.50;7.95;;;;;;;23.11;57.05;99597.98;1607380;87;21214;-83
2023/11/01 10:25:40;;;;;;;16.57;6.97;;;;;;;23.01;57.40;99605.77;1622730;87;21319;-84
2023/11/01 10:28:48;;;;;;;14.78;7.30;;;;;;;23.17;57.42;99606.63;1617860;87;21314;-83
2023/11/01 10:32:07;;;;;;;25.52;8.55;;;;;;;23.24;57.49;99591.00;1623446;87;21303;-82
2023/11/01 10:35:21;;;;;;;13.62;7.35;;;;;;;23.36;57.54;99589.63;1616907;87;21742;-83
2023/11/01 10:38:31;;;;;;;18.32;7.58;;;;;;;23.41;57.02;99582.66;1622286;87;21851;-83
2023/11/01 10:41:43;;;;;;;22.20;7.45;;;;;;;23.51;56.63;99580.42;1621262;87;21314;-82
2023/11/01 10:44:51;;;;;;;18.27;7.80;;;;;;;23.48;56.51;99569.84;1630677;86;21310;-82
2023/11/01 10:47:50;;;;;;;16.07;7.35;;;;;;;23.59;55.92;99570.11;1620978;87;21261;-83
2023/11/01 10:50:56;;;;;;;30.97;8.88;;;;;;;23.54;55.72;99567.32;1609239;87;21319;-83
2023/11/01 10:54:02;;;;;;;20.27;7.47;;;;;;;23.38;56.02;99562.31;1616240;87;21319;-83
2023/11/01 10:57:08;;;;;;;22.25;7.08;;;;;;;23.09;56.68;99552.22;1624575;87;22123;-82
2023/11/01 11:00:31;;;;;;;19.75;7.40;;;;;;;23.35;56.49;99546.11;1618600;87;21366;-82
2023/11/01 11:04:12;;;;;;;17.67;7.47;;;;;;;23.58;55.84;99541.09;1615465;87;21961;-82
2023/11/01 11:07:42;;;;;;;23.40;8.15;;;;;;;23.62;55.99;99543.56;1615631;87;21318;-82
2023/11/01 11:10:48;;;;;;;20.57;8.18;;;;;;;23.29;56.55;99553.34;1617248;86;21327;-83
2023/11/01 11:13:55;;;;;;;18.37;7.95;;;;;;;23.48;55.80;99547.52;1621445;86;21658;-82
2023/11/01 11:17:15;;;;;;;19.85;7.47;;;;;;;23.47;55.59;99548.61;1619740;86;21215;-82
2023/11/01 11:20:21;;;;;;;19.92;7.17;;;;;;;23.47;55.89;99551.39;1614778;86;21622;-82
2023/11/01 11:23:39;;;;;;;19.00;7.35;;;;;;;23.49;55.78;99549.19;1624801;86;21947;-83
2023/11/01 11:26:48;;;;;;;19.30;7.35;;;;;;;23.52;56.03;99544.98;1645967;86;21621;-83
2023/11/01 11:29:54;;;;;;;18.27;7.87;;;;;;;23.63;56.01;99546.09;1650706;86;21305;-83
2023/11/01 11:33:05;;;;;;;23.30;6.95;;;;;;;23.52;56.67;99537.44;1645608;86;21271;-83
2023/11/01 11:36:20;;;;;;;16.30;7.10;;;;;;;23.15;57.67;99532.16;1642763;86;21968;-83
2023/11/01 11:39:19;;;;;;;30.23;7.90;;;;;;;23.60;56.53;99528.51;1641753;86;21305;-82
2023/11/01 11:42:53;;;;;;;18.07;6.47;;;;;;;23.59;56.32;99524.05;1645586;86;21903;-81
2023/11/01 11:45:59;;;;;;;20.77;7.08;;;;;;;23.64;56.28;99519.88;1653565;86;21309;-82
2023/11/01 11:49:06;;;;;;;34.63;6.95;;;;;;;23.76;55.74;99513.16;1647701;86;21933;-82
2023/11/01 11:52:15;;;;;;;25.12;6.08;;;;;;;24.05;54.97;99503.03;1647742;86;21329;-82
2023/11/01 11:55:21;;;;;;;21.77;7.70;;;;;;;24.08;54.86;99498.26;1654665;86;21281;-82
2023/11/01 11:58:26;;;;;;;18.07;7.28;;;;;;;24.05;55.00;99496.05;1647947;86;21790;-83
2023/11/01 12:01:33;;;;;;;24.35;7.67;;;;;;;23.98;55.22;99492.15;1648864;86;21388;-82
2023/11/01 12:04:41;;;;;;;18.17;6.37;;;;;;;24.20;54.54;99489.56;1639962;86;22036;-82
2023/11/01 12:07:50;;;;;;;25.43;7.50;;;;;;;24.41;53.93;99487.53;1645602;86;21409;-83
2023/11/01 12:10:58;;;;;;;19.98;6.87;;;;;;;24.25;53.89;99483.95;1642024;86;21317;-83
2023/11/01 12:14:05;;;;;;;18.17;7.62;;;;;;;24.28;53.89;99492.31;1639761;86;21323;-81
2023/11/01 12:17:12;;;;;;;18.77;7.80;;;;;;;24.39;53.64;99491.19;1656248;86;21658;-83
2023/11/01 12:20:17;;;;;;;18.40;7.17;;;;;;;23.36;56.51;99491.14;1650142;86;21326;-82
2023/11/01 12:23:23;;;;;;;16.42;7.53;;;;;;;23.15;57.33;99480.56;1665864;85;21314;-82
2023/11/01 12:26:28;;;;;;;23.05;7.83;;;;;;;23.05;57.46;99484.16;1701275;83;21305;-82
2023/11/01 12:30:00;;;;;;;18.42;7.65;;;;;;;23.01;57.55;99473.31;1697575;83;21873;-82
2023/11/01 12:33:07;;;;;;;28.20;7.35;;;;;;;23.07;57.46;99477.77;1704797;83;21341;-82
2023/11/01 12:36:12;;;;;;;15.10;7.45;;;;;;;22.98;57.59;99472.46;1702319;83;21317;-82
2023/11/01 12:39:18;;;;;;;21.93;7.87;;;;;;;22.86;57.83;99471.84;1698004;83;21320;-83
2023/11/01 12:42:33;;;;;;;27.45;9.88;;;;;;;22.88;57.70;99481.63;1695919;83;21341;-82
2023/11/01 12:45:39;;;;;;;27.77;8.90;;;;;;;22.68;58.03;99474.08;1697214;83;21641;-83
2023/11/01 12:48:45;;;;;;;19.82;7.97;;;;;;;22.54;58.68;99463.19;1701461;83;21988;-82
2023/11/01 12:51:51;;;;;;;29.02;7.87;;;;;;;22.63;58.62;99460.14;1706239;83;21839;-78
2023/11/01 12:54:57;;;;;;;26.73;8.15;;;;;;;22.53;59.29;99460.09;1714977;83;21688;-82
2023/11/01 12:58:02;;;;;;;23.47;7.78;;;;;;;22.34;59.85;99461.16;1699299;83;21357;-80
2023/11/01 13:01:08;;;;;;;21.70;7.47;;;;;;;22.44;59.87;99458.42;1709140;83;21897;-82
2023/11/01 13:04:14;;;;;;;21.00;7.78;;;;;;;22.56;59.86;99474.87;1694004;83;21277;-79
2023/11/01 13:07:21;;;;;;;24.63;7.62;;;;;;;22.36;60.61;99481.24;1697632;83;21710;-81
2023/11/01 13:10:26;;;;;;;20.20;7.97;;;;;;;22.26;61.27;99469.23;1698627;83;21333;-79
2023/11/01 13:13:33;;;;;;;20.72;8.18;;;;;;;22.04;62.17;99469.39;1643963;87;21311;-81
2023/11/01 13:16:38;;;;;;;19.00;7.47;;;;;;;22.03;62.34;99476.91;1657258;86;21303;-79
2023/11/01 13:19:44;;;;;;;20.70;8.55;;;;;;;22.26;62.09;99481.22;1650079;86;21446;-78
2023/11/01 13:22:57;;;;;;;23.40;9.18;;;;;;;22.54;61.25;99477.12;1671587;85;21310;-83
2023/11/01 13:26:02;;;;;;;25.65;8.85;;;;;;;22.61;61.18;99476.28;1653050;86;21302;-78
2023/11/01 13:29:11;;;;;;;22.52;9.43;;;;;;;22.39;61.92;99477.05;1710991;83;21299;-78
2023/11/01 13:32:17;;;;;;;20.85;9.88;;;;;;;22.38;62.02;99465.64;1712894;83;21303;-82
2023/11/01 13:35:24;;;;;;;20.52;8.70;;;;;;;22.23;62.63;99489.27;1712827;83;21277;-78
2023/11/01 13:38:31;;;;;;;27.73;10.50;;;;;;;21.80;63.93;99469.00;1722922;83;21854;-80
2023/11/01 13:41:37;;;;;;;33.08;13.90;;;;;;;21.83;64.12;99465.13;1714228;83;21580;-79
2023/11/01 13:44:43;;;;;;;26.93;11.45;;;;;;;21.72;64.76;99450.02;1722381;83;21349;-84
2023/11/01 13:47:51;;;;;;;24.02;8.38;;;;;;;21.96;64.04;99430.37;1718793;83;21277;-84
2023/11/01 13:50:57;;;;;;;23.10;7.85;;;;;;;21.49;65.44;99429.02;1709621;83;21301;-84
2023/11/01 13:54:02;;;;;;;21.80;8.93;;;;;;;21.38;65.81;99425.35;1704151;83;21281;-79
2023/11/01 13:57:09;;;;;;;20.23;9.28;;;;;;;21.39;66.09;99422.84;1717267;83;21336;-83
2023/11/01 14:00:15;;;;;;;21.80;9.35;;;;;;;21.21;66.81;99413.52;1696353;84;21348;-80
2023/11/01 14:03:20;;;;;;;18.07;9.20;;;;;;;21.06;67.26;99426.20;1707688;83;21351;-82
2023/11/01 14:06:30;;;;;;;29.02;11.65;;;;;;;21.11;67.25;99409.56;1696725;84;21965;-79
2023/11/01 14:09:35;;;;;;;36.63;13.78;;;;;;;20.95;67.75;99403.61;1665705;84;21336;-83
2023/11/01 14:12:47;;;;;;;33.05;12.88;;;;;;;21.08;67.64;99407.33;1696116;84;21355;-83
2023/11/01 14:15:50;;;;;;;30.72;13.62;;;;;;;21.14;67.63;99399.30;1665309;86;21697;-80
2023/11/01 14:18:56;;;;;;;30.37;14.18;;;;;;;21.11;67.94;99398.98;1714295;83;21756;-79
2023/11/01 14:22:03;;;;;;;34.40;13.18;;;;;;;21.10;67.93;99403.72;1715130;83;21372;-80
2023/11/01 14:25:09;;;;;;;30.05;12.58;;;;;;;20.98;68.27;99416.13;1715785;83;21846;-80
2023/11/01 14:28:17;;;;;;;38.17;12.45;;;;;;;20.80;68.79;99419.63;1714631;83;21339;-84
2023/11/01 14:31:25;;;;;;;23.55;12.50;;;;;;;20.83;68.77;99408.51;1714977;83;21368;-85
2023/11/01 14:34:31;;;;;;;30.00;14.00;;;;;;;20.75;69.18;99415.94;1714885;83;21285;-79
2023/11/01 14:37:36;;;;;;;36.15;14.63;;;;;;;20.62;69.56;99406.95;1715694;83;21317;-85